sensor_id;sensor_type;location;lat;lon;timestamp;P1;durP1;ratioP1;P2;durP2;ratioP2
1358;SDS011;673;48.098;14.422;2023-04-03T00:01:00;2.00;;;1.80;;
1358;SDS011;673;48.098;14.422;2023-04-03T00:03:27;1.50;;;1.40;;
1358;SDS011;673;48.098;14.422;2023-04-03T00:05:56;2.50;;;1.87;;
1358;SDS011;673;48.098;14.422;2023-04-03T00:08:23;2.20;;;1.90;;
1358;SDS011;673;48.098;14.422;2023-04-03T00:10:50;2.23;;;2.03;;
1358;SDS011;673;48.098;14.422;2023-04-03T00:13:17;3.30;;;2.43;;
1358;SDS011;673;48.098;14.422;2023-04-03T00:15:44;4.30;;;2.80;;
1358;SDS011;673;48.098;14.422;2023-04-03T00:18:11;4.87;;;2.77;;
1358;SDS011;673;48.098;14.422;2023-04-03T00:20:38;5.33;;;2.50;;
1358;SDS011;673;48.098;14.422;2023-04-03T00:23:06;2.53;;;2.33;;
1358;SDS011;673;48.098;14.422;2023-04-03T00:25:34;3.00;;;2.80;;
1358;SDS011;673;48.098;14.422;2023-04-03T00:28:02;3.67;;;2.50;;
1358;SDS011;673;48.098;14.422;2023-04-03T00:30:30;2.17;;;2.07;;
1358;SDS011;673;48.098;14.422;2023-04-03T00:32:57;2.50;;;2.10;;
1358;SDS011;673;48.098;14.422;2023-04-03T00:35:25;2.20;;;2.00;;
1358;SDS011;673;48.098;14.422;2023-04-03T00:37:53;4.40;;;3.20;;
1358;SDS011;673;48.098;14.422;2023-04-03T00:40:22;5.70;;;2.40;;
1358;SDS011;673;48.098;14.422;2023-04-03T00:42:51;2.70;;;2.30;;
1358;SDS011;673;48.098;14.422;2023-04-03T00:45:27;2.90;;;2.60;;
1358;SDS011;673;48.098;14.422;2023-04-03T00:47:57;2.10;;;1.80;;
1358;SDS011;673;48.098;14.422;2023-04-03T00:50:26;2.90;;;2.63;;
1358;SDS011;673;48.098;14.422;2023-04-03T00:52:55;2.70;;;2.30;;
1358;SDS011;673;48.098;14.422;2023-04-03T00:55:25;2.10;;;1.80;;
1358;SDS011;673;48.098;14.422;2023-04-03T00:57:52;2.90;;;2.00;;
1358;SDS011;673;48.098;14.422;2023-04-03T01:00:19;2.43;;;2.23;;
1358;SDS011;673;48.098;14.422;2023-04-03T01:02:48;2.50;;;2.30;;
1358;SDS011;673;48.098;14.422;2023-04-03T01:05:16;2.83;;;2.33;;
1358;SDS011;673;48.098;14.422;2023-04-03T01:07:43;2.87;;;2.67;;
1358;SDS011;673;48.098;14.422;2023-04-03T01:10:12;3.60;;;3.20;;
1358;SDS011;673;48.098;14.422;2023-04-03T01:12:43;3.00;;;2.17;;
1358;SDS011;673;48.098;14.422;2023-04-03T01:15:12;5.23;;;2.20;;
1358;SDS011;673;48.098;14.422;2023-04-03T01:17:41;2.37;;;2.17;;
1358;SDS011;673;48.098;14.422;2023-04-03T01:20:24;2.43;;;2.20;;
1358;SDS011;673;48.098;14.422;2023-04-03T01:23:26;2.83;;;2.63;;
1358;SDS011;673;48.098;14.422;2023-04-03T01:26:02;2.77;;;2.57;;
1358;SDS011;673;48.098;14.422;2023-04-03T01:28:32;1.80;;;1.53;;
1358;SDS011;673;48.098;14.422;2023-04-03T01:31:02;2.10;;;1.90;;
1358;SDS011;673;48.098;14.422;2023-04-03T01:33:35;7.80;;;2.27;;
1358;SDS011;673;48.098;14.422;2023-04-03T01:36:03;2.90;;;1.70;;
1358;SDS011;673;48.098;14.422;2023-04-03T01:38:31;2.67;;;2.47;;
1358;SDS011;673;48.098;14.422;2023-04-03T01:40:58;2.80;;;2.60;;
1358;SDS011;673;48.098;14.422;2023-04-03T01:43:25;2.47;;;2.27;;
1358;SDS011;673;48.098;14.422;2023-04-03T01:45:52;4.00;;;2.30;;
1358;SDS011;673;48.098;14.422;2023-04-03T01:48:20;2.90;;;2.70;;
1358;SDS011;673;48.098;14.422;2023-04-03T01:50:48;2.07;;;1.87;;
1358;SDS011;673;48.098;14.422;2023-04-03T01:53:15;1.83;;;1.73;;
1358;SDS011;673;48.098;14.422;2023-04-03T01:55:42;2.07;;;1.87;;
1358;SDS011;673;48.098;14.422;2023-04-03T01:58:10;2.17;;;2.00;;
1358;SDS011;673;48.098;14.422;2023-04-03T02:00:36;2.43;;;2.23;;
1358;SDS011;673;48.098;14.422;2023-04-03T02:03:03;2.67;;;1.90;;
1358;SDS011;673;48.098;14.422;2023-04-03T02:05:31;2.17;;;1.93;;
1358;SDS011;673;48.098;14.422;2023-04-03T02:08:00;4.20;;;2.87;;
1358;SDS011;673;48.098;14.422;2023-04-03T02:10:27;3.10;;;2.90;;
1358;SDS011;673;48.098;14.422;2023-04-03T02:12:54;2.60;;;2.20;;
1358;SDS011;673;48.098;14.422;2023-04-03T02:15:21;2.43;;;2.23;;
1358;SDS011;673;48.098;14.422;2023-04-03T02:17:48;2.40;;;1.00;;
1358;SDS011;673;48.098;14.422;2023-04-03T02:20:15;1.90;;;1.67;;
1358;SDS011;673;48.098;14.422;2023-04-03T02:22:42;2.10;;;1.50;;
1358;SDS011;673;48.098;14.422;2023-04-03T02:25:10;2.60;;;2.27;;
1358;SDS011;673;48.098;14.422;2023-04-03T02:27:37;2.57;;;1.80;;
1358;SDS011;673;48.098;14.422;2023-04-03T02:30:05;2.83;;;2.13;;
1358;SDS011;673;48.098;14.422;2023-04-03T02:32:34;1.90;;;1.53;;
1358;SDS011;673;48.098;14.422;2023-04-03T02:35:01;2.50;;;1.87;;
1358;SDS011;673;48.098;14.422;2023-04-03T02:37:28;1.70;;;1.60;;
1358;SDS011;673;48.098;14.422;2023-04-03T02:39:55;2.10;;;1.53;;
1358;SDS011;673;48.098;14.422;2023-04-03T02:42:24;1.10;;;1.00;;
1358;SDS011;673;48.098;14.422;2023-04-03T02:44:51;1.37;;;1.10;;
1358;SDS011;673;48.098;14.422;2023-04-03T02:47:18;1.70;;;1.47;;
1358;SDS011;673;48.098;14.422;2023-04-03T02:49:45;2.10;;;1.80;;
1358;SDS011;673;48.098;14.422;2023-04-03T02:52:12;3.33;;;1.67;;
1358;SDS011;673;48.098;14.422;2023-04-03T02:54:39;1.83;;;1.37;;
1358;SDS011;673;48.098;14.422;2023-04-03T02:57:06;3.50;;;1.67;;
1358;SDS011;673;48.098;14.422;2023-04-03T02:59:35;4.37;;;1.70;;
1358;SDS011;673;48.098;14.422;2023-04-03T03:02:05;3.33;;;1.27;;
1358;SDS011;673;48.098;14.422;2023-04-03T03:04:32;3.40;;;1.83;;
1358;SDS011;673;48.098;14.422;2023-04-03T03:06:59;2.07;;;1.37;;
1358;SDS011;673;48.098;14.422;2023-04-03T03:09:26;1.40;;;1.23;;
1358;SDS011;673;48.098;14.422;2023-04-03T03:11:54;1.70;;;1.60;;
1358;SDS011;673;48.098;14.422;2023-04-03T03:14:21;1.80;;;1.70;;
1358;SDS011;673;48.098;14.422;2023-04-03T03:16:49;4.50;;;1.67;;
1358;SDS011;673;48.098;14.422;2023-04-03T03:19:16;1.70;;;1.47;;
1358;SDS011;673;48.098;14.422;2023-04-03T03:21:43;2.60;;;2.27;;
1358;SDS011;673;48.098;14.422;2023-04-03T03:24:10;2.30;;;1.70;;
1358;SDS011;673;48.098;14.422;2023-04-03T03:26:38;4.77;;;2.10;;
1358;SDS011;673;48.098;14.422;2023-04-03T03:29:05;2.50;;;1.63;;
1358;SDS011;673;48.098;14.422;2023-04-03T03:31:32;1.43;;;1.23;;
1358;SDS011;673;48.098;14.422;2023-04-03T03:34:00;2.73;;;2.00;;
1358;SDS011;673;48.098;14.422;2023-04-03T03:36:27;2.70;;;2.00;;
1358;SDS011;673;48.098;14.422;2023-04-03T03:38:54;1.83;;;1.73;;
1358;SDS011;673;48.098;14.422;2023-04-03T03:41:21;2.80;;;2.00;;
1358;SDS011;673;48.098;14.422;2023-04-03T03:43:48;2.70;;;2.00;;
1358;SDS011;673;48.098;14.422;2023-04-03T03:46:15;2.00;;;1.53;;
1358;SDS011;673;48.098;14.422;2023-04-03T03:48:42;1.40;;;1.30;;
1358;SDS011;673;48.098;14.422;2023-04-03T03:51:11;2.03;;;1.87;;
1358;SDS011;673;48.098;14.422;2023-04-03T03:53:38;1.60;;;1.50;;
1358;SDS011;673;48.098;14.422;2023-04-03T03:56:05;3.10;;;1.80;;
1358;SDS011;673;48.098;14.422;2023-04-03T03:58:32;3.10;;;1.83;;
1358;SDS011;673;48.098;14.422;2023-04-03T04:01:00;2.03;;;1.60;;
1358;SDS011;673;48.098;14.422;2023-04-03T04:03:28;1.37;;;1.27;;
1358;SDS011;673;48.098;14.422;2023-04-03T04:05:55;3.70;;;1.73;;
1358;SDS011;673;48.098;14.422;2023-04-03T04:08:23;2.43;;;1.53;;
1358;SDS011;673;48.098;14.422;2023-04-03T04:10:50;2.40;;;1.47;;
1358;SDS011;673;48.098;14.422;2023-04-03T04:13:17;1.70;;;1.57;;
1358;SDS011;673;48.098;14.422;2023-04-03T04:15:45;1.77;;;1.67;;
1358;SDS011;673;48.098;14.422;2023-04-03T04:18:12;5.60;;;1.63;;
1358;SDS011;673;48.098;14.422;2023-04-03T04:20:39;1.40;;;1.23;;
1358;SDS011;673;48.098;14.422;2023-04-03T04:23:06;2.07;;;1.87;;
1358;SDS011;673;48.098;14.422;2023-04-03T04:25:34;4.70;;;1.80;;
1358;SDS011;673;48.098;14.422;2023-04-03T04:28:01;1.77;;;1.67;;
1358;SDS011;673;48.098;14.422;2023-04-03T04:30:28;2.33;;;1.80;;
1358;SDS011;673;48.098;14.422;2023-04-03T04:32:55;2.10;;;2.00;;
1358;SDS011;673;48.098;14.422;2023-04-03T04:35:22;3.53;;;1.90;;
1358;SDS011;673;48.098;14.422;2023-04-03T04:37:49;2.03;;;1.40;;
1358;SDS011;673;48.098;14.422;2023-04-03T04:40:16;2.03;;;1.70;;
1358;SDS011;673;48.098;14.422;2023-04-03T04:42:45;4.30;;;1.70;;
1358;SDS011;673;48.098;14.422;2023-04-03T04:45:12;1.67;;;1.57;;
1358;SDS011;673;48.098;14.422;2023-04-03T04:47:40;2.90;;;2.47;;
1358;SDS011;673;48.098;14.422;2023-04-03T04:50:07;2.13;;;1.93;;
1358;SDS011;673;48.098;14.422;2023-04-03T04:52:34;2.43;;;1.73;;
1358;SDS011;673;48.098;14.422;2023-04-03T04:55:01;2.23;;;2.13;;
1358;SDS011;673;48.098;14.422;2023-04-03T04:57:29;5.40;;;2.03;;
1358;SDS011;673;48.098;14.422;2023-04-03T04:59:58;5.20;;;3.47;;
1358;SDS011;673;48.098;14.422;2023-04-03T05:02:25;2.30;;;1.80;;
1358;SDS011;673;48.098;14.422;2023-04-03T05:04:52;1.90;;;1.80;;
1358;SDS011;673;48.098;14.422;2023-04-03T05:07:19;2.13;;;1.70;;
1358;SDS011;673;48.098;14.422;2023-04-03T05:09:46;4.50;;;2.03;;
1358;SDS011;673;48.098;14.422;2023-04-03T05:12:13;2.90;;;2.00;;
1358;SDS011;673;48.098;14.422;2023-04-03T05:14:40;2.30;;;2.00;;
1358;SDS011;673;48.098;14.422;2023-04-03T05:17:08;3.00;;;1.93;;
1358;SDS011;673;48.098;14.422;2023-04-03T05:19:35;2.13;;;1.43;;
1358;SDS011;673;48.098;14.422;2023-04-03T05:22:02;1.57;;;1.47;;
1358;SDS011;673;48.098;14.422;2023-04-03T05:24:29;1.73;;;1.60;;
1358;SDS011;673;48.098;14.422;2023-04-03T05:26:56;1.20;;;1.10;;
1358;SDS011;673;48.098;14.422;2023-04-03T05:29:23;2.43;;;2.00;;
1358;SDS011;673;48.098;14.422;2023-04-03T05:31:50;3.20;;;1.77;;
1358;SDS011;673;48.098;14.422;2023-04-03T05:34:18;3.97;;;2.70;;
1358;SDS011;673;48.098;14.422;2023-04-03T05:36:45;3.70;;;2.33;;
1358;SDS011;673;48.098;14.422;2023-04-03T05:39:12;8.03;;;3.00;;
1358;SDS011;673;48.098;14.422;2023-04-03T05:41:39;1.80;;;1.63;;
1358;SDS011;673;48.098;14.422;2023-04-03T05:44:06;3.40;;;1.30;;
1358;SDS011;673;48.098;14.422;2023-04-03T05:46:33;2.63;;;2.43;;
1358;SDS011;673;48.098;14.422;2023-04-03T05:49:00;2.53;;;2.30;;
1358;SDS011;673;48.098;14.422;2023-04-03T05:51:30;2.40;;;2.20;;
1358;SDS011;673;48.098;14.422;2023-04-03T05:54:00;3.60;;;2.70;;
1358;SDS011;673;48.098;14.422;2023-04-03T05:56:32;1.83;;;1.73;;
1358;SDS011;673;48.098;14.422;2023-04-03T05:58:59;2.93;;;2.47;;
1358;SDS011;673;48.098;14.422;2023-04-03T06:01:26;2.63;;;2.37;;
1358;SDS011;673;48.098;14.422;2023-04-03T06:03:53;3.80;;;2.90;;
1358;SDS011;673;48.098;14.422;2023-04-03T06:06:20;2.27;;;1.90;;
1358;SDS011;673;48.098;14.422;2023-04-03T06:08:49;2.73;;;2.17;;
1358;SDS011;673;48.098;14.422;2023-04-03T06:11:17;1.60;;;1.50;;
1358;SDS011;673;48.098;14.422;2023-04-03T06:13:44;1.93;;;1.70;;
1358;SDS011;673;48.098;14.422;2023-04-03T06:16:11;3.60;;;1.97;;
1358;SDS011;673;48.098;14.422;2023-04-03T06:18:40;3.80;;;2.27;;
1358;SDS011;673;48.098;14.422;2023-04-03T06:21:07;5.20;;;2.57;;
1358;SDS011;673;48.098;14.422;2023-04-03T06:23:34;1.97;;;1.70;;
1358;SDS011;673;48.098;14.422;2023-04-03T06:26:03;3.33;;;2.93;;
1358;SDS011;673;48.098;14.422;2023-04-03T06:28:30;2.80;;;2.47;;
1358;SDS011;673;48.098;14.422;2023-04-03T06:30:57;2.03;;;1.57;;
1358;SDS011;673;48.098;14.422;2023-04-03T06:33:24;1.47;;;1.33;;
1358;SDS011;673;48.098;14.422;2023-04-03T06:35:55;1.10;;;1.00;;
1358;SDS011;673;48.098;14.422;2023-04-03T06:38:23;2.70;;;1.10;;
1358;SDS011;673;48.098;14.422;2023-04-03T06:40:50;1.63;;;1.13;;
1358;SDS011;673;48.098;14.422;2023-04-03T06:43:19;2.30;;;1.03;;
1358;SDS011;673;48.098;14.422;2023-04-03T06:45:46;1.33;;;1.00;;
1358;SDS011;673;48.098;14.422;2023-04-03T06:48:13;1.50;;;1.37;;
1358;SDS011;673;48.098;14.422;2023-04-03T06:50:40;2.70;;;1.50;;
1358;SDS011;673;48.098;14.422;2023-04-03T06:53:08;1.77;;;1.40;;
1358;SDS011;673;48.098;14.422;2023-04-03T06:55:35;1.67;;;1.00;;
1358;SDS011;673;48.098;14.422;2023-04-03T06:58:02;4.27;;;1.17;;
1358;SDS011;673;48.098;14.422;2023-04-03T07:00:31;1.03;;;1.03;;
1358;SDS011;673;48.098;14.422;2023-04-03T07:02:59;1.53;;;0.90;;
1358;SDS011;673;48.098;14.422;2023-04-03T07:05:26;1.43;;;1.20;;
1358;SDS011;673;48.098;14.422;2023-04-03T07:07:53;1.60;;;1.50;;
1358;SDS011;673;48.098;14.422;2023-04-03T07:10:20;4.13;;;2.30;;
1358;SDS011;673;48.098;14.422;2023-04-03T07:12:47;2.07;;;1.33;;
1358;SDS011;673;48.098;14.422;2023-04-03T07:15:14;1.70;;;1.50;;
1358;SDS011;673;48.098;14.422;2023-04-03T07:17:42;1.90;;;1.67;;
1358;SDS011;673;48.098;14.422;2023-04-03T07:20:10;5.20;;;1.83;;
1358;SDS011;673;48.098;14.422;2023-04-03T07:22:37;2.97;;;2.07;;
1358;SDS011;673;48.098;14.422;2023-04-03T07:25:05;4.37;;;2.37;;
1358;SDS011;673;48.098;14.422;2023-04-03T07:27:32;1.63;;;1.43;;
1358;SDS011;673;48.098;14.422;2023-04-03T07:29:59;3.53;;;1.60;;
1358;SDS011;673;48.098;14.422;2023-04-03T07:32:28;4.13;;;2.00;;
1358;SDS011;673;48.098;14.422;2023-04-03T07:34:56;2.87;;;1.70;;
1358;SDS011;673;48.098;14.422;2023-04-03T07:37:23;1.30;;;1.23;;
1358;SDS011;673;48.098;14.422;2023-04-03T07:39:50;3.13;;;2.03;;
1358;SDS011;673;48.098;14.422;2023-04-03T07:42:17;2.87;;;1.43;;
1358;SDS011;673;48.098;14.422;2023-04-03T07:44:44;2.90;;;2.10;;
1358;SDS011;673;48.098;14.422;2023-04-03T07:47:11;3.13;;;1.93;;
1358;SDS011;673;48.098;14.422;2023-04-03T07:49:41;1.73;;;1.63;;
1358;SDS011;673;48.098;14.422;2023-04-03T07:52:10;1.87;;;1.77;;
1358;SDS011;673;48.098;14.422;2023-04-03T07:54:37;1.60;;;1.20;;
1358;SDS011;673;48.098;14.422;2023-04-03T07:57:04;0.80;;;0.80;;
1358;SDS011;673;48.098;14.422;2023-04-03T07:59:31;1.27;;;0.70;;
1358;SDS011;673;48.098;14.422;2023-04-03T08:01:58;1.13;;;1.03;;
1358;SDS011;673;48.098;14.422;2023-04-03T08:04:25;2.70;;;0.87;;
1358;SDS011;673;48.098;14.422;2023-04-03T08:06:52;1.87;;;1.17;;
1358;SDS011;673;48.098;14.422;2023-04-03T08:09:21;2.53;;;1.27;;
1358;SDS011;673;48.098;14.422;2023-04-03T08:11:48;2.00;;;1.90;;
1358;SDS011;673;48.098;14.422;2023-04-03T08:14:18;3.63;;;1.67;;
1358;SDS011;673;48.098;14.422;2023-04-03T08:16:45;3.63;;;3.13;;
1358;SDS011;673;48.098;14.422;2023-04-03T08:19:13;2.70;;;2.50;;
1358;SDS011;673;48.098;14.422;2023-04-03T08:21:43;5.10;;;4.57;;
1358;SDS011;673;48.098;14.422;2023-04-03T08:24:10;7.93;;;5.67;;
1358;SDS011;673;48.098;14.422;2023-04-03T08:26:39;5.60;;;4.37;;
1358;SDS011;673;48.098;14.422;2023-04-03T08:29:06;10.87;;;7.23;;
1358;SDS011;673;48.098;14.422;2023-04-03T08:31:33;10.03;;;8.23;;
1358;SDS011;673;48.098;14.422;2023-04-03T08:34:00;10.63;;;7.43;;
1358;SDS011;673;48.098;14.422;2023-04-03T08:36:28;8.10;;;6.40;;
1358;SDS011;673;48.098;14.422;2023-04-03T08:38:56;9.27;;;8.00;;
1358;SDS011;673;48.098;14.422;2023-04-03T08:41:25;1.90;;;1.67;;
1358;SDS011;673;48.098;14.422;2023-04-03T08:44:00;5.33;;;1.70;;
1358;SDS011;673;48.098;14.422;2023-04-03T08:46:36;1.63;;;1.03;;
1358;SDS011;673;48.098;14.422;2023-04-03T08:49:14;1.47;;;1.10;;
1358;SDS011;673;48.098;14.422;2023-04-03T08:51:48;1.37;;;1.10;;
1358;SDS011;673;48.098;14.422;2023-04-03T08:54:19;1.10;;;1.03;;
1358;SDS011;673;48.098;14.422;2023-04-03T08:56:53;2.10;;;1.60;;
1358;SDS011;673;48.098;14.422;2023-04-03T08:59:24;1.53;;;1.43;;
1358;SDS011;673;48.098;14.422;2023-04-03T09:01:55;4.23;;;1.80;;
1358;SDS011;673;48.098;14.422;2023-04-03T09:04:24;1.90;;;1.50;;
1358;SDS011;673;48.098;14.422;2023-04-03T09:06:54;2.30;;;1.20;;
1358;SDS011;673;48.098;14.422;2023-04-03T09:09:30;1.03;;;0.87;;
1358;SDS011;673;48.098;14.422;2023-04-03T09:12:03;1.10;;;0.80;;
1358;SDS011;673;48.098;14.422;2023-04-03T09:14:38;2.00;;;1.80;;
1358;SDS011;673;48.098;14.422;2023-04-03T09:17:09;1.37;;;1.27;;
1358;SDS011;673;48.098;14.422;2023-04-03T09:19:41;1.30;;;0.97;;
1358;SDS011;673;48.098;14.422;2023-04-03T09:22:17;2.70;;;0.87;;
1358;SDS011;673;48.098;14.422;2023-04-03T09:24:48;2.60;;;1.00;;
1358;SDS011;673;48.098;14.422;2023-04-03T09:27:22;3.80;;;0.70;;
1358;SDS011;673;48.098;14.422;2023-04-03T09:29:51;4.73;;;3.67;;
1358;SDS011;673;48.098;14.422;2023-04-03T09:32:21;2.97;;;1.30;;
1358;SDS011;673;48.098;14.422;2023-04-03T09:34:52;1.70;;;1.00;;
1358;SDS011;673;48.098;14.422;2023-04-03T09:37:33;1.47;;;1.00;;
1358;SDS011;673;48.098;14.422;2023-04-03T09:40:05;5.93;;;1.17;;
1358;SDS011;673;48.098;14.422;2023-04-03T09:42:59;2.10;;;1.13;;
1358;SDS011;673;48.098;14.422;2023-04-03T09:45:31;2.00;;;1.13;;
1358;SDS011;673;48.098;14.422;2023-04-03T09:48:07;1.80;;;1.33;;
1358;SDS011;673;48.098;14.422;2023-04-03T09:50:52;0.83;;;0.83;;
1358;SDS011;673;48.098;14.422;2023-04-03T09:53:29;1.30;;;1.20;;
1358;SDS011;673;48.098;14.422;2023-04-03T09:56:02;1.43;;;1.07;;
1358;SDS011;673;48.098;14.422;2023-04-03T09:58:32;3.33;;;1.23;;
1358;SDS011;673;48.098;14.422;2023-04-03T10:01:04;1.07;;;0.97;;
1358;SDS011;673;48.098;14.422;2023-04-03T10:03:32;0.80;;;0.60;;
1358;SDS011;673;48.098;14.422;2023-04-03T10:06:00;0.87;;;0.87;;
1358;SDS011;673;48.098;14.422;2023-04-03T10:08:29;3.57;;;0.77;;
1358;SDS011;673;48.098;14.422;2023-04-03T10:11:13;0.80;;;0.80;;
1358;SDS011;673;48.098;14.422;2023-04-03T10:13:54;1.60;;;1.50;;
1358;SDS011;673;48.098;14.422;2023-04-03T10:16:26;1.10;;;0.80;;
1358;SDS011;673;48.098;14.422;2023-04-03T10:21:54;1.00;;;0.90;;
1358;SDS011;673;48.098;14.422;2023-04-03T10:24:28;1.60;;;0.80;;
1358;SDS011;673;48.098;14.422;2023-04-03T10:27:02;1.23;;;0.70;;
1358;SDS011;673;48.098;14.422;2023-04-03T10:29:36;2.50;;;1.10;;
1358;SDS011;673;48.098;14.422;2023-04-03T10:32:22;0.83;;;0.70;;
1358;SDS011;673;48.098;14.422;2023-04-03T10:35:01;1.20;;;1.10;;
1358;SDS011;673;48.098;14.422;2023-04-03T10:37:35;1.43;;;1.27;;
1358;SDS011;673;48.098;14.422;2023-04-03T10:40:15;4.60;;;0.90;;
1358;SDS011;673;48.098;14.422;2023-04-03T10:42:58;1.10;;;1.00;;
1358;SDS011;673;48.098;14.422;2023-04-03T10:45:36;0.97;;;0.90;;
1358;SDS011;673;48.098;14.422;2023-04-03T10:48:25;2.03;;;1.17;;
1358;SDS011;673;48.098;14.422;2023-04-03T10:51:05;1.00;;;0.80;;
1358;SDS011;673;48.098;14.422;2023-04-03T10:53:41;1.10;;;0.73;;
1358;SDS011;673;48.098;14.422;2023-04-03T10:56:15;0.90;;;0.60;;
1358;SDS011;673;48.098;14.422;2023-04-03T10:58:48;1.13;;;0.60;;
1358;SDS011;673;48.098;14.422;2023-04-03T11:01:20;2.40;;;0.87;;
1358;SDS011;673;48.098;14.422;2023-04-03T11:03:52;2.87;;;1.20;;
1358;SDS011;673;48.098;14.422;2023-04-03T11:06:23;2.37;;;0.70;;
1358;SDS011;673;48.098;14.422;2023-04-03T11:08:55;1.63;;;0.83;;
1358;SDS011;673;48.098;14.422;2023-04-03T11:11:29;3.27;;;1.27;;
1358;SDS011;673;48.098;14.422;2023-04-03T11:14:00;1.33;;;0.80;;
1358;SDS011;673;48.098;14.422;2023-04-03T11:16:30;1.20;;;1.07;;
1358;SDS011;673;48.098;14.422;2023-04-03T11:19:03;1.30;;;1.07;;
1358;SDS011;673;48.098;14.422;2023-04-03T11:21:39;1.27;;;0.97;;
1358;SDS011;673;48.098;14.422;2023-04-03T11:24:11;0.83;;;0.83;;
1358;SDS011;673;48.098;14.422;2023-04-03T11:26:46;1.33;;;1.23;;
1358;SDS011;673;48.098;14.422;2023-04-03T11:29:17;1.40;;;1.03;;
1358;SDS011;673;48.098;14.422;2023-04-03T11:31:54;2.20;;;0.90;;
1358;SDS011;673;48.098;14.422;2023-04-03T11:34:35;1.20;;;1.00;;
1358;SDS011;673;48.098;14.422;2023-04-03T11:37:11;1.10;;;0.80;;
1358;SDS011;673;48.098;14.422;2023-04-03T11:39:47;2.40;;;0.90;;
1358;SDS011;673;48.098;14.422;2023-04-03T11:42:24;1.17;;;0.80;;
1358;SDS011;673;48.098;14.422;2023-04-03T11:47:44;1.43;;;1.20;;
1358;SDS011;673;48.098;14.422;2023-04-03T11:56:00;1.50;;;1.00;;
1358;SDS011;673;48.098;14.422;2023-04-03T11:58:52;1.57;;;0.90;;
1358;SDS011;673;48.098;14.422;2023-04-03T12:01:48;3.47;;;1.20;;
1358;SDS011;673;48.098;14.422;2023-04-03T12:04:16;1.40;;;1.23;;
1358;SDS011;673;48.098;14.422;2023-04-03T12:07:00;1.50;;;1.07;;
1358;SDS011;673;48.098;14.422;2023-04-03T12:12:42;2.50;;;0.80;;
1358;SDS011;673;48.098;14.422;2023-04-03T12:15:25;2.57;;;0.70;;
1358;SDS011;673;48.098;14.422;2023-04-03T12:21:08;0.80;;;0.80;;
1358;SDS011;673;48.098;14.422;2023-04-03T12:23:58;7.80;;;1.70;;
1358;SDS011;673;48.098;14.422;2023-04-03T12:26:28;1.17;;;0.80;;
1358;SDS011;673;48.098;14.422;2023-04-03T12:28:58;0.80;;;0.63;;
1358;SDS011;673;48.098;14.422;2023-04-03T12:31:38;0.87;;;0.87;;
1358;SDS011;673;48.098;14.422;2023-04-03T12:34:35;1.43;;;0.70;;
1358;SDS011;673;48.098;14.422;2023-04-03T12:37:17;1.20;;;0.90;;
1358;SDS011;673;48.098;14.422;2023-04-03T12:40:05;1.10;;;0.60;;
1358;SDS011;673;48.098;14.422;2023-04-03T12:42:44;0.70;;;0.70;;
1358;SDS011;673;48.098;14.422;2023-04-03T12:45:39;2.00;;;1.73;;
1358;SDS011;673;48.098;14.422;2023-04-03T12:48:12;1.30;;;1.00;;
1358;SDS011;673;48.098;14.422;2023-04-03T12:50:42;1.00;;;0.70;;
1358;SDS011;673;48.098;14.422;2023-04-03T12:53:12;1.90;;;1.10;;
1358;SDS011;673;48.098;14.422;2023-04-03T12:55:43;1.13;;;0.90;;
1358;SDS011;673;48.098;14.422;2023-04-03T12:58:15;0.83;;;0.73;;
1358;SDS011;673;48.098;14.422;2023-04-03T13:00:43;1.10;;;0.80;;
1358;SDS011;673;48.098;14.422;2023-04-03T13:03:19;1.67;;;0.97;;
1358;SDS011;673;48.098;14.422;2023-04-03T13:05:58;1.87;;;0.90;;
1358;SDS011;673;48.098;14.422;2023-04-03T13:08:26;0.80;;;0.80;;
1358;SDS011;673;48.098;14.422;2023-04-03T13:10:55;1.20;;;1.10;;
1358;SDS011;673;48.098;14.422;2023-04-03T13:13:27;1.80;;;0.87;;
1358;SDS011;673;48.098;14.422;2023-04-03T13:15:55;2.77;;;0.83;;
1358;SDS011;673;48.098;14.422;2023-04-03T13:18:23;1.00;;;0.73;;
1358;SDS011;673;48.098;14.422;2023-04-03T13:20:55;1.70;;;1.20;;
1358;SDS011;673;48.098;14.422;2023-04-03T13:23:27;0.90;;;0.80;;
1358;SDS011;673;48.098;14.422;2023-04-03T13:25:55;1.63;;;1.00;;
1358;SDS011;673;48.098;14.422;2023-04-03T13:28:27;1.67;;;1.57;;
1358;SDS011;673;48.098;14.422;2023-04-03T13:30:56;1.33;;;1.10;;
1358;SDS011;673;48.098;14.422;2023-04-03T13:33:28;0.83;;;0.83;;
1358;SDS011;673;48.098;14.422;2023-04-03T13:35:59;1.53;;;1.00;;
1358;SDS011;673;48.098;14.422;2023-04-03T13:38:30;1.40;;;1.20;;
1358;SDS011;673;48.098;14.422;2023-04-03T13:40:59;2.10;;;1.23;;
1358;SDS011;673;48.098;14.422;2023-04-03T13:43:30;1.80;;;1.10;;
1358;SDS011;673;48.098;14.422;2023-04-03T13:46:00;1.20;;;1.10;;
1358;SDS011;673;48.098;14.422;2023-04-03T13:48:48;1.27;;;1.17;;
1358;SDS011;673;48.098;14.422;2023-04-03T13:51:18;1.10;;;0.90;;
1358;SDS011;673;48.098;14.422;2023-04-03T13:53:51;2.13;;;1.30;;
1358;SDS011;673;48.098;14.422;2023-04-03T13:56:21;2.13;;;0.90;;
1358;SDS011;673;48.098;14.422;2023-04-03T13:59:03;1.07;;;0.97;;
1358;SDS011;673;48.098;14.422;2023-04-03T14:01:33;1.53;;;1.43;;
1358;SDS011;673;48.098;14.422;2023-04-03T14:04:14;2.23;;;1.57;;
1358;SDS011;673;48.098;14.422;2023-04-03T14:06:43;1.63;;;1.10;;
1358;SDS011;673;48.098;14.422;2023-04-03T14:09:10;1.23;;;1.13;;
1358;SDS011;673;48.098;14.422;2023-04-03T14:11:39;2.30;;;1.90;;
1358;SDS011;673;48.098;14.422;2023-04-03T14:14:12;1.67;;;1.57;;
1358;SDS011;673;48.098;14.422;2023-04-03T14:16:41;3.27;;;1.70;;
1358;SDS011;673;48.098;14.422;2023-04-03T14:19:14;1.00;;;0.90;;
1358;SDS011;673;48.098;14.422;2023-04-03T14:21:45;1.63;;;1.00;;
1358;SDS011;673;48.098;14.422;2023-04-03T14:24:13;2.20;;;1.20;;
1358;SDS011;673;48.098;14.422;2023-04-03T14:26:41;1.57;;;1.43;;
1358;SDS011;673;48.098;14.422;2023-04-03T14:29:11;1.27;;;1.10;;
1358;SDS011;673;48.098;14.422;2023-04-03T14:31:39;1.40;;;1.30;;
1358;SDS011;673;48.098;14.422;2023-04-03T14:34:06;1.77;;;1.47;;
1358;SDS011;673;48.098;14.422;2023-04-03T14:36:33;0.97;;;0.97;;
1358;SDS011;673;48.098;14.422;2023-04-03T14:39:00;2.13;;;1.97;;
1358;SDS011;673;48.098;14.422;2023-04-03T14:41:29;3.23;;;1.43;;
1358;SDS011;673;48.098;14.422;2023-04-03T14:43:56;2.30;;;1.07;;
1358;SDS011;673;48.098;14.422;2023-04-03T14:46:25;1.10;;;1.00;;
1358;SDS011;673;48.098;14.422;2023-04-03T14:48:55;1.80;;;0.90;;
1358;SDS011;673;48.098;14.422;2023-04-03T14:51:22;6.00;;;1.63;;
1358;SDS011;673;48.098;14.422;2023-04-03T14:53:49;1.27;;;1.17;;
1358;SDS011;673;48.098;14.422;2023-04-03T14:56:17;1.23;;;0.77;;
1358;SDS011;673;48.098;14.422;2023-04-03T14:58:47;2.37;;;1.00;;
1358;SDS011;673;48.098;14.422;2023-04-03T15:01:15;1.10;;;0.90;;
1358;SDS011;673;48.098;14.422;2023-04-03T15:03:44;1.70;;;1.10;;
1358;SDS011;673;48.098;14.422;2023-04-03T15:06:11;1.23;;;1.13;;
1358;SDS011;673;48.098;14.422;2023-04-03T15:08:39;1.30;;;1.00;;
1358;SDS011;673;48.098;14.422;2023-04-03T15:11:08;2.37;;;0.83;;
1358;SDS011;673;48.098;14.422;2023-04-03T15:13:36;1.93;;;1.20;;
1358;SDS011;673;48.098;14.422;2023-04-03T15:16:03;1.40;;;1.20;;
1358;SDS011;673;48.098;14.422;2023-04-03T15:18:32;0.90;;;0.90;;
1358;SDS011;673;48.098;14.422;2023-04-03T15:21:04;1.73;;;1.00;;
1358;SDS011;673;48.098;14.422;2023-04-03T15:23:31;4.20;;;1.23;;
1358;SDS011;673;48.098;14.422;2023-04-03T15:25:58;5.27;;;1.00;;
1358;SDS011;673;48.098;14.422;2023-04-03T15:28:27;1.17;;;1.07;;
1358;SDS011;673;48.098;14.422;2023-04-03T15:30:56;2.23;;;1.57;;
1358;SDS011;673;48.098;14.422;2023-04-03T15:33:24;2.00;;;1.00;;
1358;SDS011;673;48.098;14.422;2023-04-03T15:35:51;2.10;;;1.00;;
1358;SDS011;673;48.098;14.422;2023-04-03T15:38:19;1.63;;;1.30;;
1358;SDS011;673;48.098;14.422;2023-04-03T15:40:46;2.60;;;1.33;;
1358;SDS011;673;48.098;14.422;2023-04-03T15:43:13;1.30;;;1.13;;
1358;SDS011;673;48.098;14.422;2023-04-03T15:45:41;1.50;;;1.40;;
1358;SDS011;673;48.098;14.422;2023-04-03T15:48:08;2.70;;;1.20;;
1358;SDS011;673;48.098;14.422;2023-04-03T15:50:36;1.20;;;1.10;;